Time;durP1;ratioP1;P1;durP2;ratioP2;P2;SDS_P1;SDS_P2;PMS_P1;PMS_P2;Temp;Humidity;BMP_temperature;BMP_pressure;BME280_temperature;BME280_humidity;BME280_pressure;Samples;Min_cycle;Max_cycle;Signal;HPM_P1;HPM_P2
2022/07/26 00:02:10;;;;;;;3.70;2.00;;;26.60;50.70;;;;;;5055313;28;20187;-75
2022/07/26 00:04:37;;;;;;;2.58;2.30;;;26.60;50.70;;;;;;5036883;28;20306;-75
2022/07/26 00:07:05;;;;;;;2.30;2.10;;;26.50;50.70;;;;;;5036911;28;20582;-76
2022/07/26 00:09:33;;;;;;;2.20;2.00;;;26.50;51.20;;;;;;5037268;28;20195;-77
2022/07/26 00:12:00;;;;;;;3.95;2.50;;;26.50;50.70;;;;;;5036953;28;20637;-75
2022/07/26 00:14:27;;;;;;;2.85;2.03;;;26.50;50.70;;;;;;5036735;28;20226;-77
2022/07/26 00:16:54;;;;;;;2.20;2.00;;;26.50;50.80;;;;;;5037456;28;20553;-77
2022/07/26 00:19:21;;;;;;;2.40;2.20;;;26.50;50.80;;;;;;5036857;28;20199;-75
2022/07/26 00:22:32;;;;;;;2.80;2.17;;;26.50;50.80;;;;;;5036736;28;20261;-76
2022/07/26 00:24:38;;;;;;;2.15;2.00;;;26.50;50.90;;;;;;5036226;28;20233;-75
2022/07/26 00:27:05;;;;;;;2.78;2.28;;;26.50;50.90;;;;;;5020200;28;20211;-76
2022/07/26 00:29:32;;;;;;;2.40;2.10;;;26.50;50.90;;;;;;5037562;28;20187;-75
2022/07/26 00:31:59;;;;;;;2.63;1.90;;;26.40;50.90;;;;;;5036612;28;20294;-75
2022/07/26 00:34:26;;;;;;;2.65;2.00;;;26.40;50.90;;;;;;5036300;28;20223;-77
2022/07/26 00:36:53;;;;;;;2.63;2.03;;;26.40;51.00;;;;;;5036330;28;20199;-76
2022/07/26 00:39:20;;;;;;;2.78;2.10;;;26.40;51.00;;;;;;5019918;28;20206;-75
2022/07/26 00:41:48;;;;;;;3.05;2.13;;;26.40;50.90;;;;;;5036237;28;20222;-77
2022/07/26 00:44:15;;;;;;;2.70;2.00;;;26.40;51.00;;;;;;5036684;28;20216;-77
2022/07/26 00:46:43;;;;;;;3.65;2.08;;;26.40;51.00;;;;;;5036256;28;20222;-77
2022/07/26 00:49:10;;;;;;;2.35;2.00;;;26.40;51.00;;;;;;5036352;28;20268;-77
2022/07/26 00:51:37;;;;;;;3.03;1.98;;;26.40;51.00;;;;;;5036404;28;20202;-77
2022/07/26 00:54:04;;;;;;;2.92;2.15;;;26.40;51.60;;;;;;5036230;28;20215;-77
2022/07/26 00:56:31;;;;;;;2.15;1.92;;;26.40;51.00;;;;;;5036324;28;20298;-75
2022/07/26 00:58:59;;;;;;;2.20;2.00;;;26.40;51.00;;;;;;5036322;28;20217;-75
2022/07/26 01:01:26;;;;;;;2.33;1.90;;;26.30;51.10;;;;;;5036128;28;20250;-75
2022/07/26 01:03:53;;;;;;;2.53;1.90;;;26.30;50.90;;;;;;5035955;28;20215;-75
2022/07/26 01:06:21;;;;;;;2.70;2.22;;;26.40;51.10;;;;;;5036108;28;20196;-76
2022/07/26 01:08:48;;;;;;;2.15;1.85;;;26.40;51.20;;;;;;5036234;28;20222;-77
2022/07/26 01:11:15;;;;;;;2.17;1.98;;;26.30;51.10;;;;;;5052569;28;20217;-75
2022/07/26 01:13:46;;;;;;;3.08;1.95;;;26.30;51.10;;;;;;5035967;28;20310;-76
2022/07/26 01:16:14;;;;;;;2.10;1.90;;;26.30;51.10;;;;;;5035747;28;20278;-75
2022/07/26 01:18:41;;;;;;;2.53;1.67;;;26.30;51.10;;;;;;5036015;28;20217;-74
2022/07/26 01:21:09;;;;;;;2.80;1.80;;;26.30;51.10;;;;;;5035484;28;20203;-76
2022/07/26 01:23:37;;;;;;;1.73;1.63;;;26.30;51.10;;;;;;5053543;28;20211;-76
2022/07/26 01:26:05;;;;;;;1.95;1.80;;;26.40;51.20;;;;;;5035649;28;20230;-76
2022/07/26 01:28:50;;;;;;;2.20;1.95;;;26.30;51.20;;;;;;5053514;28;20241;-76
2022/07/26 01:31:17;;;;;;;2.50;2.08;;;26.40;51.40;;;;;;5035435;28;20199;-76
2022/07/26 01:33:45;;;;;;;2.03;1.80;;;26.30;51.40;;;;;;5035574;28;20245;-75
2022/07/26 01:36:12;;;;;;;1.77;1.67;;;26.30;51.40;;;;;;5035965;28;20207;-76
2022/07/26 01:38:41;;;;;;;1.90;1.80;;;26.40;51.30;;;;;;5053583;28;20223;-76
2022/07/26 01:41:08;;;;;;;1.70;1.60;;;26.40;51.40;;;;;;5035637;28;20199;-76
2022/07/26 01:43:35;;;;;;;2.00;1.80;;;26.40;51.40;;;;;;5035419;28;20242;-74
2022/07/26 01:46:02;;;;;;;1.95;1.75;;;26.40;51.40;;;;;;5035501;28;20517;-74
2022/07/26 01:48:30;;;;;;;2.38;1.73;;;26.30;51.40;;;;;;5019585;28;20202;-76
2022/07/26 01:50:57;;;;;;;1.65;1.55;;;26.30;51.50;;;;;;5053526;28;20187;-77
2022/07/26 01:53:24;;;;;;;2.67;1.70;;;26.40;51.40;;;;;;5035717;28;20230;-74
2022/07/26 01:55:52;;;;;;;2.08;1.50;;;26.40;51.30;;;;;;5035598;28;20203;-74
2022/07/26 01:58:19;;;;;;;3.38;1.83;;;26.40;51.40;;;;;;5039064;28;20191;-76
2022/07/26 02:00:46;;;;;;;2.30;1.60;;;26.40;51.50;;;;;;5057669;28;20275;-74
2022/07/26 02:07:00;;;;;;;1.92;1.83;;;26.40;51.50;;;;;;5060562;28;20158;-75
2022/07/26 02:09:27;;;;;;;2.47;1.90;;;26.30;51.50;;;;;;5043398;28;20203;-75
2022/07/26 02:11:56;;;;;;;2.03;1.88;;;26.40;52.30;;;;;;5044237;28;20230;-74
2022/07/26 02:14:23;;;;;;;1.60;1.50;;;26.30;51.70;;;;;;5040629;28;20224;-76
2022/07/26 02:16:55;;;;;;;1.80;1.65;;;26.30;52.20;;;;;;5039421;28;20199;-75
2022/07/26 02:19:22;;;;;;;1.63;1.52;;;26.30;51.70;;;;;;5039167;28;20562;-74
2022/07/26 02:21:49;;;;;;;1.73;1.63;;;26.30;51.80;;;;;;5039091;28;20203;-74
2022/07/26 02:24:16;;;;;;;1.70;1.60;;;26.30;51.80;;;;;;5039307;28;20810;-75
2022/07/26 02:26:44;;;;;;;1.80;1.70;;;26.30;51.80;;;;;;5040331;28;20203;-73
2022/07/26 02:29:12;;;;;;;1.83;1.73;;;26.30;51.80;;;;;;5039061;28;20286;-76
2022/07/26 02:31:39;;;;;;;1.80;1.70;;;26.20;51.80;;;;;;5038853;28;20195;-76
2022/07/26 02:34:06;;;;;;;1.70;1.60;;;26.30;51.90;;;;;;5038534;28;20230;-76
2022/07/26 02:36:33;;;;;;;1.60;1.50;;;26.30;51.90;;;;;;5041415;28;20554;-75
2022/07/26 02:39:00;;;;;;;1.85;1.67;;;26.20;51.90;;;;;;5039398;28;20581;-76
2022/07/26 02:41:27;;;;;;;1.77;1.65;;;26.20;51.90;;;;;;5039085;28;20203;-74
2022/07/26 02:43:54;;;;;;;1.60;1.50;;;26.20;52.00;;;;;;5040041;28;20203;-76
2022/07/26 02:46:23;;;;;;;1.77;1.67;;;26.20;52.10;;;;;;5041038;28;20195;-76
2022/07/26 02:49:10;;;;;;;1.70;1.60;;;26.20;52.10;;;;;;5059080;28;20267;-75
2022/07/26 02:51:37;;;;;;;2.08;1.60;;;26.20;52.20;;;;;;5022927;28;20723;-74
2022/07/26 02:54:05;;;;;;;2.00;1.52;;;26.20;52.10;;;;;;5038820;28;20211;-75
2022/07/26 02:56:32;;;;;;;2.28;1.90;;;26.20;52.10;;;;;;5038966;28;20654;-76
2022/07/26 02:58:59;;;;;;;2.00;1.50;;;26.20;52.10;;;;;;5038285;28;20290;-76
2022/07/26 03:01:27;;;;;;;1.65;1.55;;;26.20;52.20;;;;;;5038402;28;20195;-76
2022/07/26 03:03:54;;;;;;;1.75;1.65;;;26.20;52.20;;;;;;5038308;28;20211;-75
2022/07/26 03:06:21;;;;;;;1.70;1.50;;;26.20;52.30;;;;;;5056214;28;20646;-76
2022/07/26 03:08:50;;;;;;;1.67;1.58;;;26.20;52.30;;;;;;5036718;28;20200;-76
2022/07/26 03:11:17;;;;;;;2.33;1.60;;;26.20;52.30;;;;;;5038610;28;20195;-75
2022/07/26 03:13:44;;;;;;;1.98;1.67;;;26.20;52.30;;;;;;5037953;28;20247;-74
2022/07/26 03:16:12;;;;;;;2.17;1.75;;;26.10;52.30;;;;;;5037965;28;20289;-74
2022/07/26 03:18:40;;;;;;;2.42;1.60;;;26.20;52.50;;;;;;5055652;28;20717;-75
2022/07/26 03:21:07;;;;;;;1.70;1.60;;;26.10;52.40;;;;;;5037736;28;20680;-75
2022/07/26 03:23:34;;;;;;;1.85;1.73;;;26.20;52.70;;;;;;5037560;28;20211;-76
2022/07/26 03:26:02;;;;;;;1.80;1.67;;;26.10;52.70;;;;;;5038688;28;20203;-76
2022/07/26 03:28:30;;;;;;;2.05;1.85;;;26.20;52.90;;;;;;5037551;28;20199;-75
2022/07/26 03:30:57;;;;;;;1.65;1.52;;;26.10;52.90;;;;;;5037676;28;20234;-76
2022/07/26 03:33:24;;;;;;;1.80;1.67;;;26.10;52.70;;;;;;5037545;28;20242;-74
2022/07/26 03:35:53;;;;;;;1.75;1.60;;;26.10;52.90;;;;;;5037470;28;20265;-75
2022/07/26 03:38:20;;;;;;;1.80;1.70;;;26.10;52.80;;;;;;5037279;28;20214;-75
2022/07/26 03:40:47;;;;;;;2.03;1.60;;;26.10;52.80;;;;;;5021038;28;20206;-76
2022/07/26 03:43:14;;;;;;;1.70;1.60;;;26.10;52.90;;;;;;5037150;28;20227;-76
2022/07/26 03:45:42;;;;;;;1.67;1.50;;;26.10;52.90;;;;;;5020774;28;20195;-75
2022/07/26 03:48:09;;;;;;;2.25;1.70;;;26.10;52.80;;;;;;5054955;28;20191;-75
2022/07/26 03:50:37;;;;;;;1.73;1.63;;;26.10;53.10;;;;;;5037204;28;20199;-75
2022/07/26 03:53:05;;;;;;;2.22;1.70;;;26.10;53.10;;;;;;5037062;28;20219;-75
2022/07/26 03:58:17;;;;;;;2.33;1.80;;;26.10;53.20;;;;;;5037019;28;20650;-76
2022/07/26 04:00:45;;;;;;;2.40;1.70;;;26.10;53.00;;;;;;5036941;28;20206;-74
2022/07/26 04:03:12;;;;;;;1.80;1.70;;;26.10;53.10;;;;;;5020626;28;20211;-75
2022/07/26 04:05:39;;;;;;;2.25;1.60;;;26.10;53.30;;;;;;5036763;28;20245;-77
2022/07/26 04:08:08;;;;;;;2.00;1.50;;;26.10;53.30;;;;;;5036825;28;20256;-74
2022/07/26 04:10:35;;;;;;;1.98;1.63;;;26.00;53.10;;;;;;5037020;28;20203;-76
2022/07/26 04:13:02;;;;;;;2.95;1.80;;;26.10;53.20;;;;;;5036477;28;20314;-76
2022/07/26 04:15:29;;;;;;;1.75;1.65;;;26.10;53.30;;;;;;5036671;28;20226;-75
2022/07/26 04:17:57;;;;;;;1.67;1.58;;;26.00;53.10;;;;;;5036506;28;20712;-75
2022/07/26 04:20:23;;;;;;;1.65;1.55;;;26.00;53.00;;;;;;5036231;28;20242;-77
2022/07/26 04:22:51;;;;;;;1.58;1.48;;;26.10;53.20;;;;;;5036471;28;20219;-77
2022/07/26 04:25:19;;;;;;;2.92;1.50;;;26.10;53.10;;;;;;5036360;28;20577;-74
2022/07/26 04:27:46;;;;;;;2.15;1.88;;;26.10;53.20;;;;;;5054027;28;20199;-77
2022/07/26 04:30:13;;;;;;;1.73;1.50;;;26.10;53.10;;;;;;5036219;28;20677;-77
2022/07/26 04:32:41;;;;;;;1.63;1.52;;;26.10;52.90;;;;;;5036157;28;20246;-77
2022/07/26 04:35:08;;;;;;;1.98;1.50;;;26.10;52.90;;;;;;5036097;28;20222;-75
2022/07/26 04:37:39;;;;;;;1.70;1.60;;;26.10;53.00;;;;;;5036036;28;20221;-74
2022/07/26 04:40:07;;;;;;;2.83;1.42;;;26.10;53.00;;;;;;5036712;28;20221;-76
2022/07/26 04:42:35;;;;;;;1.70;1.60;;;26.00;52.90;;;;;;5036025;28;20249;-77
2022/07/26 04:45:03;;;;;;;1.60;1.50;;;26.00;52.90;;;;;;5036005;28;20202;-74
2022/07/26 04:47:30;;;;;;;1.45;1.20;;;26.00;52.90;;;;;;5036161;28;20203;-75
2022/07/26 04:49:58;;;;;;;1.50;1.40;;;26.00;52.80;;;;;;5036033;28;20628;-76
2022/07/26 04:52:25;;;;;;;1.60;1.50;;;26.00;52.80;;;;;;5035891;28;20203;-74
2022/07/26 04:54:53;;;;;;;1.90;1.30;;;26.00;52.80;;;;;;5036631;28;20223;-76
2022/07/26 04:57:20;;;;;;;1.60;1.50;;;26.10;52.70;;;;;;5019634;28;20195;-76
2022/07/26 04:59:48;;;;;;;1.52;1.42;;;26.00;52.60;;;;;;5035879;28;20257;-74
2022/07/26 05:02:17;;;;;;;1.38;1.27;;;26.10;52.70;;;;;;5036649;28;20595;-73
2022/07/26 05:04:44;;;;;;;1.45;1.35;;;26.10;52.70;;;;;;5036263;28;20191;-75
2022/07/26 05:07:11;;;;;;;2.53;1.77;;;26.10;52.40;;;;;;5036050;28;20199;-74
2022/07/26 05:09:39;;;;;;;1.55;1.45;;;26.20;52.80;;;;;;5035690;28;20210;-74
2022/07/26 05:12:06;;;;;;;2.50;1.77;;;26.10;52.80;;;;;;5019539;28;20231;-73
2022/07/26 05:14:36;;;;;;;2.40;1.33;;;25.90;53.60;;;;;;5035675;28;20233;-74
2022/07/26 05:17:04;;;;;;;1.63;1.42;;;25.70;53.70;;;;;;5054181;28;20632;-74
2022/07/26 05:19:32;;;;;;;2.03;1.33;;;25.60;54.00;;;;;;5035756;28;20199;-74
2022/07/26 05:21:59;;;;;;;2.45;1.45;;;25.60;54.20;;;;;;5035925;28;20196;-74
2022/07/26 05:24:25;;;;;;;2.47;1.65;;;25.70;53.80;;;;;;5037083;28;20207;-73
2022/07/26 05:26:52;;;;;;;1.88;1.40;;;25.70;54.80;;;;;;5035949;28;20230;-73
2022/07/26 05:29:20;;;;;;;1.60;1.48;;;25.60;54.80;;;;;;5036065;28;20203;-75
2022/07/26 05:31:47;;;;;;;1.60;1.50;;;25.60;54.60;;;;;;5036338;28;20206;-73
2022/07/26 05:34:15;;;;;;;2.47;1.60;;;25.60;54.10;;;;;;5039556;28;20223;-75
2022/07/26 05:36:42;;;;;;;1.50;1.40;;;25.60;54.70;;;;;;5039870;28;20198;-74
2022/07/26 05:39:09;;;;;;;2.20;1.70;;;25.50;55.20;;;;;;5040668;28;20241;-74
2022/07/26 05:41:36;;;;;;;3.30;1.80;;;25.40;54.80;;;;;;5040571;28;20202;-74
2022/07/26 05:44:04;;;;;;;5.03;1.80;;;25.50;53.20;;;;;;5039967;28;20243;-74
2022/07/26 05:46:31;;;;;;;9.38;2.15;;;25.50;52.90;;;;;;5023532;28;20203;-74
2022/07/26 05:48:58;;;;;;;4.57;1.90;;;25.50;53.40;;;;;;5039901;28;20199;-75
2022/07/26 05:51:29;;;;;;;2.70;1.75;;;25.60;53.70;;;;;;5039876;28;20609;-75
2022/07/26 05:53:55;;;;;;;2.35;1.52;;;25.70;53.70;;;;;;5040198;28;20230;-75
2022/07/26 05:56:23;;;;;;;2.50;1.77;;;25.90;53.20;;;;;;5041995;28;20291;-73
2022/07/26 05:58:50;;;;;;;2.63;1.83;;;26.00;52.80;;;;;;5040779;28;20207;-74
2022/07/26 06:01:17;;;;;;;2.35;1.92;;;26.10;52.50;;;;;;5040431;28;20206;-74
2022/07/26 06:03:44;;;;;;;2.70;1.80;;;26.10;52.50;;;;;;5040084;28;20755;-74
2022/07/26 06:06:11;;;;;;;1.70;1.60;;;26.10;52.60;;;;;;5040709;28;20219;-73
2022/07/26 06:08:39;;;;;;;1.92;1.73;;;26.10;53.30;;;;;;5041067;28;20211;-74
2022/07/26 06:11:07;;;;;;;2.85;1.70;;;26.20;52.60;;;;;;5040267;28;20676;-73
2022/07/26 06:13:34;;;;;;;2.28;1.80;;;26.20;52.40;;;;;;5039822;28;20697;-74
2022/07/26 06:16:01;;;;;;;2.60;2.10;;;26.40;52.10;;;;;;5039583;28;20215;-75
2022/07/26 06:18:28;;;;;;;1.77;1.67;;;26.60;51.50;;;;;;5039267;28;20203;-73
2022/07/26 06:20:55;;;;;;;3.38;1.77;;;27.00;51.00;;;;;;5039404;28;20650;-75
2022/07/26 06:23:23;;;;;;;2.92;1.63;;;27.20;50.10;;;;;;5039149;28;20211;-74
2022/07/26 06:25:51;;;;;;;3.38;1.67;;;27.50;49.70;;;;;;5038996;28;20199;-74
2022/07/26 06:28:18;;;;;;;3.10;1.70;;;27.60;49.40;;;;;;5039172;28;20203;-74
2022/07/26 06:30:46;;;;;;;2.53;1.70;;;27.60;49.30;;;;;;5039007;28;20205;-74
2022/07/26 06:33:13;;;;;;;2.25;1.67;;;27.60;49.30;;;;;;5038871;28;20590;-74
2022/07/26 06:35:41;;;;;;;1.75;1.60;;;27.60;49.30;;;;;;5038725;28;20215;-74
2022/07/26 06:38:08;;;;;;;1.65;1.55;;;27.70;49.10;;;;;;5038452;28;20609;-74
2022/07/26 06:40:35;;;;;;;2.22;1.90;;;27.90;48.60;;;;;;5038701;28;20233;-74
2022/07/26 06:43:04;;;;;;;1.83;1.70;;;28.10;48.20;;;;;;5037929;28;20241;-74
2022/07/26 06:45:31;;;;;;;1.70;1.55;;;28.30;47.80;;;;;;5039096;28;20183;-75
2022/07/26 06:47:59;;;;;;;1.83;1.65;;;28.50;47.40;;;;;;5038565;28;20207;-75
2022/07/26 06:50:26;;;;;;;2.28;1.70;;;28.60;47.00;;;;;;5038385;28;20198;-74
2022/07/26 06:52:53;;;;;;;1.90;1.80;;;28.80;46.70;;;;;;5038312;28;20570;-75
2022/07/26 06:55:20;;;;;;;2.55;1.75;;;29.00;46.30;;;;;;5038342;28;20305;-73
2022/07/26 06:57:47;;;;;;;2.38;1.73;;;29.10;45.90;;;;;;5038794;28;20203;-74
2022/07/26 07:00:17;;;;;;;1.70;1.60;;;29.30;45.60;;;;;;5038069;28;20289;-74
2022/07/26 07:02:44;;;;;;;2.33;1.50;;;29.50;45.30;;;;;;5037937;28;20215;-74
2022/07/26 07:05:11;;;;;;;2.58;1.92;;;29.50;44.80;;;;;;5038085;28;20260;-75
2022/07/26 07:07:39;;;;;;;1.52;1.42;;;29.60;44.50;;;;;;5037987;28;20213;-75
2022/07/26 07:10:06;;;;;;;3.63;1.58;;;29.70;44.50;;;;;;5038073;28;20282;-73
2022/07/26 07:12:34;;;;;;;2.50;1.65;;;29.70;44.50;;;;;;5037767;28;20272;-74
2022/07/26 07:15:01;;;;;;;2.78;1.50;;;29.70;44.40;;;;;;5055775;28;20209;-74
2022/07/26 07:17:30;;;;;;;1.77;1.67;;;29.70;44.20;;;;;;5037687;28;20248;-74
2022/07/26 07:19:59;;;;;;;1.45;1.30;;;29.80;44.10;;;;;;5037681;28;20537;-74
2022/07/26 07:22:26;;;;;;;1.67;1.38;;;29.80;44.20;;;;;;5037662;28;20202;-73
2022/07/26 07:24:53;;;;;;;2.03;1.50;;;29.80;44.00;;;;;;5055446;28;20269;-74
2022/07/26 07:27:20;;;;;;;2.17;1.50;;;29.90;43.90;;;;;;5037621;28;20214;-73
2022/07/26 07:29:48;;;;;;;2.63;1.58;;;29.90;43.70;;;;;;5037614;28;20282;-74
2022/07/26 07:32:15;;;;;;;2.53;1.30;;;30.00;43.70;;;;;;5055224;28;20198;-74
2022/07/26 07:34:44;;;;;;;2.47;1.60;;;30.10;43.40;;;;;;5037392;28;20199;-75
2022/07/26 07:37:12;;;;;;;1.50;1.40;;;30.20;43.20;;;;;;5037418;28;20374;-74
2022/07/26 07:39:39;;;;;;;1.40;1.30;;;30.20;43.00;;;;;;5037563;28;20361;-75
2022/07/26 07:42:06;;;;;;;2.30;1.70;;;30.20;42.80;;;;;;5055290;28;20186;-74
2022/07/26 07:44:33;;;;;;;1.60;1.50;;;30.30;42.70;;;;;;5037299;28;20217;-74
2022/07/26 07:47:00;;;;;;;1.60;1.50;;;30.30;42.30;;;;;;5037182;28;20201;-74
2022/07/26 07:49:27;;;;;;;2.00;1.70;;;30.40;42.40;;;;;;5037053;28;20203;-75
2022/07/26 07:51:55;;;;;;;1.60;1.40;;;30.40;42.00;;;;;;5037150;28;20513;-74
2022/07/26 07:54:22;;;;;;;2.47;1.40;;;30.30;42.20;;;;;;5036296;28;20222;-75
2022/07/26 07:56:50;;;;;;;1.70;1.40;;;30.20;42.40;;;;;;5037206;28;20229;-75
2022/07/26 07:59:17;;;;;;;1.70;1.50;;;30.20;42.50;;;;;;5037088;28;20207;-75
2022/07/26 08:01:44;;;;;;;1.50;1.40;;;30.20;42.40;;;;;;5020413;28;20199;-74
2022/07/26 08:04:11;;;;;;;2.03;1.50;;;30.30;42.40;;;;;;5037144;28;20218;-74
2022/07/26 08:06:38;;;;;;;1.30;1.20;;;30.30;42.20;;;;;;5036902;28;20603;-75
2022/07/26 08:09:07;;;;;;;1.75;1.50;;;30.20;42.40;;;;;;5037292;28;20203;-75
2022/07/26 08:11:54;;;;;;;1.92;1.40;;;30.10;43.30;;;;;;5055013;28;20524;-73
2022/07/26 08:14:22;;;;;;;1.40;1.30;;;30.00;42.80;;;;;;5036912;28;20222;-75
2022/07/26 08:16:49;;;;;;;1.50;1.40;;;30.00;42.70;;;;;;5036928;28;20215;-73
2022/07/26 08:19:16;;;;;;;1.42;1.33;;;30.00;42.70;;;;;;5036886;28;20218;-74
2022/07/26 08:21:44;;;;;;;1.50;1.40;;;29.90;42.80;;;;;;5037301;28;20197;-74
2022/07/26 08:24:13;;;;;;;1.77;1.30;;;29.90;43.00;;;;;;5038004;28;20214;-74
2022/07/26 08:26:40;;;;;;;1.55;1.40;;;29.90;43.80;;;;;;5054633;28;20183;-74
2022/07/26 08:29:07;;;;;;;1.52;1.17;;;29.80;43.30;;;;;;5019706;28;20285;-75
2022/07/26 08:31:34;;;;;;;1.50;1.40;;;29.60;43.40;;;;;;5036377;28;20196;-75
2022/07/26 08:34:01;;;;;;;1.40;1.30;;;29.50;43.60;;;;;;5037421;28;20305;-74
2022/07/26 08:36:29;;;;;;;1.50;1.40;;;29.50;43.80;;;;;;5036550;28;20225;-73
2022/07/26 08:38:56;;;;;;;1.42;1.30;;;29.60;43.60;;;;;;5036344;28;20202;-75
2022/07/26 08:41:25;;;;;;;1.50;1.40;;;29.60;43.50;;;;;;5037126;28;20202;-75
2022/07/26 08:43:52;;;;;;;1.52;1.30;;;29.70;43.50;;;;;;5036199;28;20315;-74
2022/07/26 08:46:21;;;;;;;1.33;1.17;;;29.80;43.60;;;;;;5036174;28;20205;-74
2022/07/26 08:48:48;;;;;;;1.27;1.20;;;29.90;43.50;;;;;;5036446;28;20198;-75
2022/07/26 08:51:15;;;;;;;1.58;1.30;;;30.00;43.20;;;;;;5036614;28;20194;-74
2022/07/26 08:53:42;;;;;;;1.85;1.42;;;30.10;42.90;;;;;;5036288;28;20292;-73
2022/07/26 08:56:09;;;;;;;1.40;1.30;;;30.20;42.70;;;;;;5036154;28;20264;-75
2022/07/26 08:58:39;;;;;;;1.30;1.20;;;30.40;42.40;;;;;;5036126;28;20205;-74
2022/07/26 09:01:07;;;;;;;1.10;1.10;;;30.40;42.30;;;;;;5035966;28;20197;-74
2022/07/26 09:03:36;;;;;;;1.42;1.33;;;30.30;42.50;;;;;;5035644;28;20298;-74
2022/07/26 09:06:14;;;;;;;1.42;1.23;;;30.30;42.30;;;;;;5035688;28;20245;-74
2022/07/26 09:08:41;;;;;;;1.50;1.40;;;30.30;42.30;;;;;;5035533;28;20206;-74
2022/07/26 09:11:31;;;;;;;1.42;1.33;;;30.30;42.30;;;;;;5035784;28;20187;-75
2022/07/26 09:14:01;;;;;;;1.52;1.30;;;30.40;42.20;;;;;;5035924;28;20223;-73
2022/07/26 09:16:28;;;;;;;1.95;1.10;;;30.40;41.90;;;;;;5036228;28;20233;-74
2022/07/26 09:18:55;;;;;;;1.95;1.30;;;30.50;41.70;;;;;;5035680;28;20191;-73
2022/07/26 09:21:29;;;;;;;2.33;1.45;;;30.50;41.60;;;;;;5053732;28;20194;-75
2022/07/26 09:23:56;;;;;;;1.63;1.10;;;30.50;41.60;;;;;;5035735;28;20246;-74
2022/07/26 09:26:23;;;;;;;1.30;1.20;;;30.50;41.60;;;;;;5035918;28;20569;-73
2022/07/26 09:29:06;;;;;;;1.42;1.30;;;30.50;41.50;;;;;;5035678;28;20260;-75
2022/07/26 09:31:33;;;;;;;1.33;1.20;;;30.60;41.70;;;;;;5035641;28;20564;-74
2022/07/26 09:34:00;;;;;;;1.55;1.13;;;30.60;41.40;;;;;;5036043;28;20218;-73
2022/07/26 09:36:27;;;;;;;1.10;1.00;;;30.60;41.40;;;;;;5036025;28;20215;-75
2022/07/26 09:38:57;;;;;;;1.48;1.10;;;30.60;41.50;;;;;;5035554;28;20206;-74
2022/07/26 09:41:26;;;;;;;1.33;1.23;;;30.50;41.50;;;;;;5035599;28;20613;-74
2022/07/26 09:43:53;;;;;;;1.23;1.13;;;30.50;41.80;;;;;;5035441;28;20265;-74
2022/07/26 09:46:21;;;;;;;1.20;1.10;;;30.30;41.90;;;;;;5036128;28;20194;-74
2022/07/26 09:48:48;;;;;;;1.38;1.27;;;30.10;42.20;;;;;;5035939;28;20194;-74
2022/07/26 09:51:16;;;;;;;1.05;1.05;;;30.00;42.40;;;;;;5035585;28;20641;-73
2022/07/26 09:53:45;;;;;;;1.20;1.10;;;29.90;42.70;;;;;;5035493;28;20305;-75
2022/07/26 09:56:12;;;;;;;1.45;1.17;;;29.90;43.40;;;;;;5035688;28;20242;-74
2022/07/26 09:58:39;;;;;;;1.30;1.20;;;29.90;42.70;;;;;;5019304;28;20203;-75
2022/07/26 10:01:07;;;;;;;1.60;1.30;;;29.80;42.90;;;;;;5035794;28;20191;-75
2022/07/26 10:03:36;;;;;;;1.20;1.10;;;29.80;43.10;;;;;;5035481;28;20715;-74
2022/07/26 10:06:03;;;;;;;1.83;1.20;;;29.70;43.20;;;;;;5035904;28;20198;-75
2022/07/26 10:08:31;;;;;;;1.75;1.30;;;29.60;43.50;;;;;;5019319;28;20237;-74
2022/07/26 10:11:02;;;;;;;1.30;1.15;;;29.50;43.90;;;;;;5019557;28;20225;-75
2022/07/26 10:13:29;;;;;;;1.40;1.30;;;29.40;43.70;;;;;;5052665;28;20222;-75
2022/07/26 10:15:56;;;;;;;1.38;1.27;;;29.30;43.90;;;;;;5037203;28;20693;-73
2022/07/26 10:18:44;;;;;;;1.40;1.20;;;29.30;44.30;;;;;;5039909;28;20237;-75
2022/07/26 10:21:21;;;;;;;1.05;0.95;;;29.20;44.50;;;;;;5039021;28;20272;-75
2022/07/26 10:23:49;;;;;;;1.95;1.20;;;29.10;44.60;;;;;;5039261;28;20215;-75
2022/07/26 10:26:36;;;;;;;1.30;1.20;;;29.10;44.80;;;;;;5038790;28;20222;-75
2022/07/26 10:29:24;;;;;;;1.23;1.10;;;29.00;44.50;;;;;;5039215;28;20206;-75
2022/07/26 10:32:16;;;;;;;1.40;1.30;;;29.00;44.70;;;;;;5022548;28;20252;-74
2022/07/26 10:34:45;;;;;;;1.20;1.10;;;29.00;45.60;;;;;;5038563;28;20645;-76
2022/07/26 10:37:28;;;;;;;1.30;1.20;;;29.10;45.00;;;;;;5038501;28;20676;-76
2022/07/26 10:40:17;;;;;;;1.27;1.17;;;29.10;44.90;;;;;;5039542;28;20217;-75
2022/07/26 10:42:44;;;;;;;1.10;1.00;;;29.10;44.90;;;;;;5038328;28;20272;-76
2022/07/26 10:45:22;;;;;;;1.13;1.02;;;29.20;44.90;;;;;;5038473;28;20222;-75
2022/07/26 10:48:17;;;;;;;1.23;1.13;;;29.20;45.00;;;;;;5038752;28;20254;-74
2022/07/26 10:50:47;;;;;;;1.23;1.10;;;29.20;45.00;;;;;;4993581;28;20205;-75
2022/07/26 10:53:17;;;;;;;1.40;1.30;;;29.10;44.90;;;;;;5039133;28;20229;-75
2022/07/26 10:55:46;;;;;;;1.15;1.05;;;29.10;45.70;;;;;;5037962;28;20198;-75
2022/07/26 10:58:13;;;;;;;1.20;1.10;;;29.10;45.20;;;;;;5038141;28;20206;-76
2022/07/26 11:00:40;;;;;;;1.30;1.20;;;29.10;45.10;;;;;;5038102;28;20199;-76
2022/07/26 11:03:07;;;;;;;1.50;1.10;;;29.10;45.50;;;;;;5037898;28;20305;-75
2022/07/26 11:05:35;;;;;;;0.98;0.98;;;29.00;45.50;;;;;;5038018;28;20194;-75
2022/07/26 11:08:07;;;;;;;1.00;0.90;;;29.00;45.60;;;;;;5037790;28;20209;-74
2022/07/26 11:10:35;;;;;;;1.60;1.13;;;29.00;45.60;;;;;;5037990;28;20249;-75
2022/07/26 11:13:12;;;;;;;1.75;1.13;;;29.00;45.70;;;;;;5037762;28;20688;-75
2022/07/26 11:15:40;;;;;;;1.25;1.10;;;29.00;45.70;;;;;;5037562;28;20590;-76
2022/07/26 11:18:12;;;;;;;1.25;1.10;;;28.90;45.60;;;;;;5037721;28;20195;-75
2022/07/26 11:20:40;;;;;;;1.02;1.02;;;28.90;45.80;;;;;;5034060;28;20242;-76
2022/07/26 11:23:31;;;;;;;1.35;1.25;;;28.90;45.80;;;;;;5037568;28;20314;-75
2022/07/26 11:26:16;;;;;;;1.20;1.10;;;28.90;45.80;;;;;;5037590;28;20198;-76
2022/07/26 11:28:48;;;;;;;1.10;1.00;;;28.90;45.30;;;;;;5037195;28;20267;-76
2022/07/26 11:31:15;;;;;;;1.65;1.10;;;29.00;45.40;;;;;;5036919;28;20210;-75
2022/07/26 11:33:43;;;;;;;1.05;0.90;;;29.00;45.20;;;;;;5021213;28;20241;-74
2022/07/26 11:36:11;;;;;;;1.20;1.10;;;29.00;45.20;;;;;;5037578;28;20685;-75
2022/07/26 11:38:51;;;;;;;1.10;1.00;;;29.10;45.10;;;;;;5037684;28;20320;-75
2022/07/26 11:41:21;;;;;;;1.00;1.00;;;29.00;44.90;;;;;;5038861;28;20198;-74
2022/07/26 11:43:48;;;;;;;1.33;1.20;;;29.10;44.80;;;;;;5037147;28;20238;-75
2022/07/26 11:46:16;;;;;;;1.33;1.23;;;29.10;44.80;;;;;;5037304;28;20222;-74
2022/07/26 11:48:46;;;;;;;1.20;1.10;;;29.10;45.40;;;;;;5037113;28;20198;-76
2022/07/26 11:51:15;;;;;;;1.20;1.10;;;29.10;45.00;;;;;;5037012;28;20195;-74
2022/07/26 11:53:42;;;;;;;1.30;1.00;;;29.10;44.90;;;;;;5037177;28;20600;-75
2022/07/26 11:56:15;;;;;;;1.10;1.00;;;29.10;45.00;;;;;;5037160;28;20542;-75
2022/07/26 11:58:43;;;;;;;1.15;1.00;;;29.00;44.90;;;;;;5037150;28;20566;-75
2022/07/26 12:01:11;;;;;;;1.25;1.15;;;29.00;45.00;;;;;;5038203;28;20546;-76
2022/07/26 12:03:38;;;;;;;1.02;1.00;;;29.00;45.10;;;;;;5036901;28;20253;-75
2022/07/26 12:06:07;;;;;;;1.50;1.20;;;28.90;45.00;;;;;;5036909;28;20723;-76
2022/07/26 12:08:41;;;;;;;1.13;0.95;;;28.90;45.10;;;;;;5036732;28;20298;-76
2022/07/26 12:11:08;;;;;;;1.30;1.20;;;28.90;45.20;;;;;;5036940;28;20191;-76
2022/07/26 12:13:56;;;;;;;1.20;1.05;;;28.90;45.10;;;;;;5036678;28;20697;-74
2022/07/26 12:16:40;;;;;;;1.13;1.02;;;28.90;45.10;;;;;;5036708;28;20218;-75
2022/07/26 12:19:08;;;;;;;1.27;0.90;;;28.90;45.40;;;;;;5036933;28;20205;-75
2022/07/26 12:21:43;;;;;;;1.10;1.10;;;28.90;45.70;;;;;;5037289;28;20618;-75
2022/07/26 12:24:11;;;;;;;1.00;1.00;;;28.80;45.80;;;;;;5036532;28;20628;-76
2022/07/26 12:26:39;;;;;;;1.10;1.00;;;28.80;45.80;;;;;;5036452;28;20190;-74
2022/07/26 12:29:26;;;;;;;1.10;1.00;;;28.80;46.00;;;;;;5054617;28;20258;-76
2022/07/26 12:32:04;;;;;;;0.90;0.90;;;28.80;46.00;;;;;;5036440;28;20217;-75
2022/07/26 12:34:31;;;;;;;1.00;1.00;;;28.80;46.00;;;;;;5036216;28;20606;-75
2022/07/26 12:37:07;;;;;;;1.15;1.00;;;28.80;46.00;;;;;;5036438;28;20215;-75
2022/07/26 12:39:34;;;;;;;1.20;1.10;;;28.80;46.10;;;;;;5037290;28;20266;-76
2022/07/26 12:42:21;;;;;;;1.35;1.00;;;28.70;46.00;;;;;;5035774;28;20202;-76
2022/07/26 12:44:50;;;;;;;0.90;0.90;;;28.70;46.10;;;;;;5036769;28;20222;-76
2022/07/26 12:47:17;;;;;;;1.15;0.90;;;28.70;46.10;;;;;;5036258;28;20191;-76
2022/07/26 12:49:45;;;;;;;0.90;0.90;;;28.70;46.20;;;;;;5035991;28;20579;-75
2022/07/26 12:52:14;;;;;;;0.95;0.95;;;28.70;46.20;;;;;;5053712;28;20194;-76
2022/07/26 12:54:41;;;;;;;0.93;0.93;;;28.70;46.20;;;;;;5036670;28;20357;-76
2022/07/26 12:57:08;;;;;;;1.15;1.05;;;28.70;46.20;;;;;;5019682;28;20222;-76
2022/07/26 12:59:35;;;;;;;1.08;0.90;;;28.70;46.20;;;;;;5035865;28;20611;-75
2022/07/26 13:02:04;;;;;;;1.17;0.90;;;28.70;46.20;;;;;;5036007;28;20209;-74
2022/07/26 13:04:31;;;;;;;0.85;0.85;;;28.70;46.30;;;;;;5035849;28;20229;-75